Terminal Aerodrome Forecast
Issued by NWS

Home | Current Version | Previous Version | Text Only | Print | Product List | Glossary On
Versions: 1 2 3 4 5 6 7 8 9 10 11 12 13
000
FTAK31 PAJN 220500
TAFAJN
TAF
PAJN 220527Z 2206/2306 25009KT P6SM FEW150
     FM220900 00000KT P6SM SKC
     FM221700 24005KT P6SM SCT120
     FM222200 25009KT P6SM BKN120=

USA.gov is the U.S. government's official web portal to all federal, state and local government web resources and services.